首页
METAR-TAF:

METAR-TAF

机场 :

武汉天河国际机场

武汉, 中华人民共和国

纬度: 30-37N, 经度: 114-08E, 海拔: 23米

当前天气观测

该预报发布于50分钟前的02:00 UTC
风速8节,风向北转东北,在东转东北之间变化
温度 2°C
湿度 64%
气压 1029 hPa
能見度: 7000

METAR: ZHHH 170200Z 03004MPS 360V060 7000 NSC 02/M04 Q1029 NOSIG

时间: 10:50 (02:50 UTC)

预报

该预报发布于7小时和30分钟前的19:20 UTC
预报有效从17日的 00点(UTC)到 17日的 24点(UTC)
风速6节,风向北转东北
能見度: 3000
散云层高于2000英尺
轻雾
成为
从 17日的 05点(UTC)到 17日的 06点(UTC)
能見度: 2800
小雨, 轻雾
成为
从 17日的 08点(UTC)到 17日的 09点(UTC)
能見度: 3000
小雨, 轻雾
短暂存在
从 17日的 00点(UTC)到 17日的 04点(UTC)
能見度: 2000
小雨, 轻雾

TAF: ZHHH 161920Z 1700/1724 03003MPS 3000 BR SCT020 TX04/1707Z TN00/1722Z BECMG 1705/1706 2800 -RA BR BECMG 1708/1709 3000 -RA BR TEMPO 1700/1704 2000 -RA BR

超过4000个机场的气象观测和天气预报(METAR&TAF报告)。

可查询的气象台以黄色和红色小点在地图上表示。

将鼠标移到小点上方,可查看气象台名称。

然后点击查看天气观测和预报。

如需切换地图:点击带黑十字的绿色按钮放大地图;点击带横线的绿色按钮缩小地图;或者点击绿色箭头查看邻近地区的地图。


METAR-TAF: